首页
METAR-TAF:

METAR-TAF

机场 :

奇罗, 南卡罗来纳州, 美国

纬度: 34-42-46N, 经度: 079-57-25W, 海拔: 73米

当前天气观测

该预报发布于17分钟前的00:35 UTC
风速5节,风向北转东北
温度 3°C
湿度 75%
气压 1021 hPa
能見度: 16.1公里
散云层高于3900英尺
阴天层高于4900英尺
小雨

METAR: KCQW 110035Z AUTO 02005KT 10SM -RA SCT039 OVC049 03/M01 A3015 RMK AO2

时间: 19:52 (00:52 UTC)


TAF: 丢失

超过4000个机场的气象观测和天气预报(METAR&TAF报告)。

可查询的气象台以黄色和红色小点在地图上表示。

将鼠标移到小点上方,可查看气象台名称。

然后点击查看天气观测和预报。

如需切换地图:点击带黑十字的绿色按钮放大地图;点击带横线的绿色按钮缩小地图;或者点击绿色箭头查看邻近地区的地图。


METAR-TAF: